sensor_id;sensor_type;location;lat;lon;timestamp;P1;durP1;ratioP1;P2;durP2;ratioP2
8622;SDS011;4349;47.552;8.904;2022-10-17T00:00:36;4.03;;;3.73;;
8622;SDS011;4349;47.552;8.904;2022-10-17T00:03:03;4.10;;;3.90;;
8622;SDS011;4349;47.552;8.904;2022-10-17T00:05:31;6.40;;;4.00;;
8622;SDS011;4349;47.552;8.904;2022-10-17T00:07:58;4.00;;;3.80;;
8622;SDS011;4349;47.552;8.904;2022-10-17T00:10:26;3.80;;;3.50;;
8622;SDS011;4349;47.552;8.904;2022-10-17T00:12:54;3.77;;;3.40;;
8622;SDS011;4349;47.552;8.904;2022-10-17T00:15:22;3.53;;;3.00;;
8622;SDS011;4349;47.552;8.904;2022-10-17T00:17:51;3.77;;;3.47;;
8622;SDS011;4349;47.552;8.904;2022-10-17T00:20:18;5.87;;;3.60;;
8622;SDS011;4349;47.552;8.904;2022-10-17T00:22:46;3.27;;;3.07;;
8622;SDS011;4349;47.552;8.904;2022-10-17T00:25:13;3.50;;;3.30;;
8622;SDS011;4349;47.552;8.904;2022-10-17T00:27:41;3.63;;;3.10;;
8622;SDS011;4349;47.552;8.904;2022-10-17T00:30:10;2.77;;;2.60;;
8622;SDS011;4349;47.552;8.904;2022-10-17T00:32:38;3.87;;;3.57;;
8622;SDS011;4349;47.552;8.904;2022-10-17T00:35:07;2.63;;;2.57;;
8622;SDS011;4349;47.552;8.904;2022-10-17T00:37:35;3.77;;;2.93;;
8622;SDS011;4349;47.552;8.904;2022-10-17T00:40:03;3.10;;;2.90;;
8622;SDS011;4349;47.552;8.904;2022-10-17T00:42:30;3.10;;;3.00;;
8622;SDS011;4349;47.552;8.904;2022-10-17T00:45:04;3.20;;;2.63;;
8622;SDS011;4349;47.552;8.904;2022-10-17T00:47:32;3.23;;;3.07;;
8622;SDS011;4349;47.552;8.904;2022-10-17T00:50:01;5.13;;;3.47;;
8622;SDS011;4349;47.552;8.904;2022-10-17T00:52:30;4.27;;;3.70;;
8622;SDS011;4349;47.552;8.904;2022-10-17T00:54:59;3.60;;;3.40;;
8622;SDS011;4349;47.552;8.904;2022-10-17T00:57:27;3.60;;;3.30;;
8622;SDS011;4349;47.552;8.904;2022-10-17T00:59:56;3.50;;;3.30;;
8622;SDS011;4349;47.552;8.904;2022-10-17T01:02:24;3.77;;;3.47;;
8622;SDS011;4349;47.552;8.904;2022-10-17T01:04:52;3.97;;;3.53;;
8622;SDS011;4349;47.552;8.904;2022-10-17T01:07:21;3.43;;;3.20;;
8622;SDS011;4349;47.552;8.904;2022-10-17T01:09:50;3.47;;;3.27;;
8622;SDS011;4349;47.552;8.904;2022-10-17T01:12:19;3.40;;;3.10;;
8622;SDS011;4349;47.552;8.904;2022-10-17T01:14:55;3.20;;;3.03;;
8622;SDS011;4349;47.552;8.904;2022-10-17T01:17:26;3.23;;;3.03;;
8622;SDS011;4349;47.552;8.904;2022-10-17T01:20:01;2.90;;;2.80;;
8622;SDS011;4349;47.552;8.904;2022-10-17T01:22:36;3.10;;;2.80;;
8622;SDS011;4349;47.552;8.904;2022-10-17T01:25:13;4.63;;;2.90;;
8622;SDS011;4349;47.552;8.904;2022-10-17T01:27:48;4.00;;;3.20;;
8622;SDS011;4349;47.552;8.904;2022-10-17T01:33:18;3.43;;;3.13;;
8622;SDS011;4349;47.552;8.904;2022-10-17T01:35:50;3.30;;;3.00;;
8622;SDS011;4349;47.552;8.904;2022-10-17T01:38:20;3.37;;;3.07;;
8622;SDS011;4349;47.552;8.904;2022-10-17T01:40:50;3.63;;;2.90;;
8622;SDS011;4349;47.552;8.904;2022-10-17T01:43:19;3.47;;;3.20;;
8622;SDS011;4349;47.552;8.904;2022-10-17T01:45:50;3.33;;;3.13;;
8622;SDS011;4349;47.552;8.904;2022-10-17T01:48:21;3.37;;;3.17;;
8622;SDS011;4349;47.552;8.904;2022-10-17T01:50:50;3.17;;;3.00;;
8622;SDS011;4349;47.552;8.904;2022-10-17T01:53:19;3.17;;;3.00;;
8622;SDS011;4349;47.552;8.904;2022-10-17T01:55:49;3.30;;;3.00;;
8622;SDS011;4349;47.552;8.904;2022-10-17T01:58:21;2.90;;;2.80;;
8622;SDS011;4349;47.552;8.904;2022-10-17T02:00:50;2.93;;;2.83;;
8622;SDS011;4349;47.552;8.904;2022-10-17T02:03:21;2.87;;;2.70;;
8622;SDS011;4349;47.552;8.904;2022-10-17T02:05:49;4.20;;;3.80;;
8622;SDS011;4349;47.552;8.904;2022-10-17T02:08:23;6.17;;;3.27;;
8622;SDS011;4349;47.552;8.904;2022-10-17T02:10:53;2.93;;;2.73;;
8622;SDS011;4349;47.552;8.904;2022-10-17T02:13:23;3.00;;;2.90;;
8622;SDS011;4349;47.552;8.904;2022-10-17T02:16:05;3.70;;;3.40;;
8622;SDS011;4349;47.552;8.904;2022-10-17T02:18:43;6.10;;;3.00;;
8622;SDS011;4349;47.552;8.904;2022-10-17T02:21:14;4.30;;;3.20;;
8622;SDS011;4349;47.552;8.904;2022-10-17T02:23:46;4.57;;;2.93;;
8622;SDS011;4349;47.552;8.904;2022-10-17T02:26:18;3.20;;;3.00;;
8622;SDS011;4349;47.552;8.904;2022-10-17T02:28:51;2.90;;;2.80;;
8622;SDS011;4349;47.552;8.904;2022-10-17T02:31:21;3.03;;;2.80;;
8622;SDS011;4349;47.552;8.904;2022-10-17T02:33:53;2.80;;;2.70;;
8622;SDS011;4349;47.552;8.904;2022-10-17T02:36:23;3.00;;;2.90;;
8622;SDS011;4349;47.552;8.904;2022-10-17T02:38:52;3.03;;;2.70;;
8622;SDS011;4349;47.552;8.904;2022-10-17T02:41:21;3.07;;;2.97;;
8622;SDS011;4349;47.552;8.904;2022-10-17T02:43:50;3.37;;;3.07;;
8622;SDS011;4349;47.552;8.904;2022-10-17T02:46:23;3.00;;;2.70;;
8622;SDS011;4349;47.552;8.904;2022-10-17T02:48:55;2.87;;;2.60;;
8622;SDS011;4349;47.552;8.904;2022-10-17T02:51:27;3.17;;;3.07;;
8622;SDS011;4349;47.552;8.904;2022-10-17T02:53:57;4.10;;;2.97;;
8622;SDS011;4349;47.552;8.904;2022-10-17T02:56:27;3.03;;;2.50;;
8622;SDS011;4349;47.552;8.904;2022-10-17T02:58:58;2.50;;;2.40;;
8622;SDS011;4349;47.552;8.904;2022-10-17T03:01:28;3.47;;;3.10;;
8622;SDS011;4349;47.552;8.904;2022-10-17T03:04:04;3.20;;;3.00;;
8622;SDS011;4349;47.552;8.904;2022-10-17T03:06:32;3.17;;;2.97;;
8622;SDS011;4349;47.552;8.904;2022-10-17T03:09:00;4.50;;;2.80;;
8622;SDS011;4349;47.552;8.904;2022-10-17T03:11:28;3.20;;;2.67;;
8622;SDS011;4349;47.552;8.904;2022-10-17T03:13:55;3.10;;;2.90;;
8622;SDS011;4349;47.552;8.904;2022-10-17T03:16:23;2.93;;;2.70;;
8622;SDS011;4349;47.552;8.904;2022-10-17T03:18:50;2.83;;;2.63;;
8622;SDS011;4349;47.552;8.904;2022-10-17T03:21:19;2.93;;;2.73;;
8622;SDS011;4349;47.552;8.904;2022-10-17T03:23:47;3.30;;;3.10;;
8622;SDS011;4349;47.552;8.904;2022-10-17T03:26:17;4.00;;;3.10;;
8622;SDS011;4349;47.552;8.904;2022-10-17T03:28:44;3.13;;;2.93;;
8622;SDS011;4349;47.552;8.904;2022-10-17T03:31:18;3.07;;;2.80;;
8622;SDS011;4349;47.552;8.904;2022-10-17T03:33:46;2.87;;;2.77;;
8622;SDS011;4349;47.552;8.904;2022-10-17T03:36:15;6.07;;;4.33;;
8622;SDS011;4349;47.552;8.904;2022-10-17T03:38:45;5.93;;;2.90;;
8622;SDS011;4349;47.552;8.904;2022-10-17T03:41:15;2.87;;;2.67;;
8622;SDS011;4349;47.552;8.904;2022-10-17T03:43:42;3.03;;;2.90;;
8622;SDS011;4349;47.552;8.904;2022-10-17T03:46:10;3.20;;;3.00;;
8622;SDS011;4349;47.552;8.904;2022-10-17T03:48:38;3.27;;;3.07;;
8622;SDS011;4349;47.552;8.904;2022-10-17T03:51:06;2.80;;;2.70;;
8622;SDS011;4349;47.552;8.904;2022-10-17T03:53:50;2.90;;;2.80;;
8622;SDS011;4349;47.552;8.904;2022-10-17T03:56:18;3.00;;;2.80;;
8622;SDS011;4349;47.552;8.904;2022-10-17T03:58:54;2.97;;;2.80;;
8622;SDS011;4349;47.552;8.904;2022-10-17T04:01:22;2.80;;;2.60;;
8622;SDS011;4349;47.552;8.904;2022-10-17T04:03:50;3.13;;;2.90;;
8622;SDS011;4349;47.552;8.904;2022-10-17T04:06:18;3.07;;;2.70;;
8622;SDS011;4349;47.552;8.904;2022-10-17T04:08:47;2.83;;;2.70;;
8622;SDS011;4349;47.552;8.904;2022-10-17T04:11:22;3.40;;;2.80;;
8622;SDS011;4349;47.552;8.904;2022-10-17T04:13:51;3.10;;;2.90;;
8622;SDS011;4349;47.552;8.904;2022-10-17T04:16:20;3.23;;;2.60;;
8622;SDS011;4349;47.552;8.904;2022-10-17T04:18:58;3.20;;;3.03;;
8622;SDS011;4349;47.552;8.904;2022-10-17T04:21:30;3.23;;;2.93;;
8622;SDS011;4349;47.552;8.904;2022-10-17T04:24:03;3.20;;;2.97;;
8622;SDS011;4349;47.552;8.904;2022-10-17T04:26:55;3.20;;;2.83;;
8622;SDS011;4349;47.552;8.904;2022-10-17T04:29:26;3.20;;;2.90;;
8622;SDS011;4349;47.552;8.904;2022-10-17T04:32:04;3.43;;;3.13;;
8622;SDS011;4349;47.552;8.904;2022-10-17T04:34:38;3.37;;;3.07;;
8622;SDS011;4349;47.552;8.904;2022-10-17T04:37:05;3.67;;;2.70;;
8622;SDS011;4349;47.552;8.904;2022-10-17T04:39:34;3.00;;;2.80;;
8622;SDS011;4349;47.552;8.904;2022-10-17T04:42:03;3.00;;;2.70;;
8622;SDS011;4349;47.552;8.904;2022-10-17T04:44:31;3.93;;;2.57;;
8622;SDS011;4349;47.552;8.904;2022-10-17T04:47:00;3.17;;;2.60;;
8622;SDS011;4349;47.552;8.904;2022-10-17T04:49:28;3.40;;;3.20;;
8622;SDS011;4349;47.552;8.904;2022-10-17T04:52:04;3.63;;;2.70;;
8622;SDS011;4349;47.552;8.904;2022-10-17T04:54:41;4.87;;;3.47;;
8622;SDS011;4349;47.552;8.904;2022-10-17T04:57:13;3.40;;;3.20;;
8622;SDS011;4349;47.552;8.904;2022-10-17T04:59:47;5.67;;;3.33;;
8622;SDS011;4349;47.552;8.904;2022-10-17T05:02:35;3.77;;;3.40;;
8622;SDS011;4349;47.552;8.904;2022-10-17T05:05:03;4.90;;;3.13;;
8622;SDS011;4349;47.552;8.904;2022-10-17T05:07:31;4.93;;;3.07;;
8622;SDS011;4349;47.552;8.904;2022-10-17T05:10:07;3.87;;;3.60;;
8622;SDS011;4349;47.552;8.904;2022-10-17T05:12:36;3.90;;;3.30;;
8622;SDS011;4349;47.552;8.904;2022-10-17T05:15:04;3.13;;;2.87;;
8622;SDS011;4349;47.552;8.904;2022-10-17T05:17:33;3.83;;;3.53;;
8622;SDS011;4349;47.552;8.904;2022-10-17T05:20:00;3.47;;;3.30;;
8622;SDS011;4349;47.552;8.904;2022-10-17T05:22:30;3.73;;;3.53;;
8622;SDS011;4349;47.552;8.904;2022-10-17T05:24:58;4.97;;;3.93;;
8622;SDS011;4349;47.552;8.904;2022-10-17T05:27:26;4.17;;;3.77;;
8622;SDS011;4349;47.552;8.904;2022-10-17T05:29:55;4.20;;;3.90;;
8622;SDS011;4349;47.552;8.904;2022-10-17T05:32:26;4.00;;;3.80;;
8622;SDS011;4349;47.552;8.904;2022-10-17T05:34:54;3.63;;;3.47;;
8622;SDS011;4349;47.552;8.904;2022-10-17T05:37:23;3.70;;;3.50;;
8622;SDS011;4349;47.552;8.904;2022-10-17T05:39:54;4.67;;;4.30;;
8622;SDS011;4349;47.552;8.904;2022-10-17T05:42:22;4.27;;;3.43;;
8622;SDS011;4349;47.552;8.904;2022-10-17T05:44:50;4.50;;;4.13;;
8622;SDS011;4349;47.552;8.904;2022-10-17T05:47:19;5.27;;;5.00;;
8622;SDS011;4349;47.552;8.904;2022-10-17T05:49:47;5.63;;;5.17;;
8622;SDS011;4349;47.552;8.904;2022-10-17T05:52:24;5.57;;;4.90;;
8622;SDS011;4349;47.552;8.904;2022-10-17T05:55:04;4.93;;;4.63;;
8622;SDS011;4349;47.552;8.904;2022-10-17T05:57:32;5.90;;;5.50;;
8622;SDS011;4349;47.552;8.904;2022-10-17T06:00:00;4.40;;;4.00;;
8622;SDS011;4349;47.552;8.904;2022-10-17T06:02:40;4.53;;;4.30;;
8622;SDS011;4349;47.552;8.904;2022-10-17T06:05:11;4.00;;;3.90;;
8622;SDS011;4349;47.552;8.904;2022-10-17T06:07:38;4.20;;;4.00;;
8622;SDS011;4349;47.552;8.904;2022-10-17T06:10:07;4.40;;;4.10;;
8622;SDS011;4349;47.552;8.904;2022-10-17T06:12:35;4.30;;;3.97;;
8622;SDS011;4349;47.552;8.904;2022-10-17T06:15:03;4.20;;;3.90;;
8622;SDS011;4349;47.552;8.904;2022-10-17T06:17:32;4.57;;;4.37;;
8622;SDS011;4349;47.552;8.904;2022-10-17T06:20:02;5.43;;;5.13;;
8622;SDS011;4349;47.552;8.904;2022-10-17T06:22:29;8.10;;;5.57;;
8622;SDS011;4349;47.552;8.904;2022-10-17T06:24:59;6.10;;;5.60;;
8622;SDS011;4349;47.552;8.904;2022-10-17T06:27:28;5.50;;;4.97;;
8622;SDS011;4349;47.552;8.904;2022-10-17T06:29:56;5.57;;;5.17;;
8622;SDS011;4349;47.552;8.904;2022-10-17T06:32:23;5.10;;;4.73;;
8622;SDS011;4349;47.552;8.904;2022-10-17T06:34:51;4.70;;;4.27;;
8622;SDS011;4349;47.552;8.904;2022-10-17T06:37:20;4.87;;;4.30;;
8622;SDS011;4349;47.552;8.904;2022-10-17T06:39:48;4.77;;;4.43;;
8622;SDS011;4349;47.552;8.904;2022-10-17T06:42:19;5.23;;;3.80;;
8622;SDS011;4349;47.552;8.904;2022-10-17T06:45:06;4.33;;;4.10;;
8622;SDS011;4349;47.552;8.904;2022-10-17T06:47:43;4.03;;;3.83;;
8622;SDS011;4349;47.552;8.904;2022-10-17T06:50:25;4.20;;;4.10;;
8622;SDS011;4349;47.552;8.904;2022-10-17T06:53:27;4.83;;;4.43;;
8622;SDS011;4349;47.552;8.904;2022-10-17T06:56:09;6.83;;;4.80;;
8622;SDS011;4349;47.552;8.904;2022-10-17T06:58:57;8.10;;;7.40;;
8622;SDS011;4349;47.552;8.904;2022-10-17T07:01:29;14.20;;;8.40;;
8622;SDS011;4349;47.552;8.904;2022-10-17T07:03:59;25.40;;;10.23;;
8622;SDS011;4349;47.552;8.904;2022-10-17T07:06:28;14.00;;;10.40;;
8622;SDS011;4349;47.552;8.904;2022-10-17T07:09:02;16.97;;;9.67;;
8622;SDS011;4349;47.552;8.904;2022-10-17T07:11:34;25.30;;;9.60;;
8622;SDS011;4349;47.552;8.904;2022-10-17T07:14:01;25.83;;;8.83;;
8622;SDS011;4349;47.552;8.904;2022-10-17T07:16:29;12.40;;;9.53;;
8622;SDS011;4349;47.552;8.904;2022-10-17T07:19:03;32.53;;;11.27;;
8622;SDS011;4349;47.552;8.904;2022-10-17T07:21:34;14.50;;;11.07;;
8622;SDS011;4349;47.552;8.904;2022-10-17T07:24:07;13.93;;;10.60;;
8622;SDS011;4349;47.552;8.904;2022-10-17T07:26:36;11.73;;;9.53;;
8622;SDS011;4349;47.552;8.904;2022-10-17T07:29:05;10.10;;;8.90;;
8622;SDS011;4349;47.552;8.904;2022-10-17T07:31:37;9.50;;;8.57;;
8622;SDS011;4349;47.552;8.904;2022-10-17T07:34:04;9.43;;;8.70;;
8622;SDS011;4349;47.552;8.904;2022-10-17T07:36:32;8.17;;;7.53;;
8622;SDS011;4349;47.552;8.904;2022-10-17T07:39:02;9.30;;;8.30;;
8622;SDS011;4349;47.552;8.904;2022-10-17T07:41:32;7.37;;;6.70;;
8622;SDS011;4349;47.552;8.904;2022-10-17T07:44:00;11.40;;;9.87;;
8622;SDS011;4349;47.552;8.904;2022-10-17T07:46:32;14.17;;;10.80;;
8622;SDS011;4349;47.552;8.904;2022-10-17T07:49:00;13.77;;;11.50;;
8622;SDS011;4349;47.552;8.904;2022-10-17T07:51:28;12.10;;;10.47;;
8622;SDS011;4349;47.552;8.904;2022-10-17T07:53:55;15.37;;;11.13;;
8622;SDS011;4349;47.552;8.904;2022-10-17T07:56:23;15.33;;;11.87;;
8622;SDS011;4349;47.552;8.904;2022-10-17T07:58:52;15.73;;;11.53;;
8622;SDS011;4349;47.552;8.904;2022-10-17T08:01:20;15.97;;;11.43;;
8622;SDS011;4349;47.552;8.904;2022-10-17T08:03:47;17.00;;;12.43;;
8622;SDS011;4349;47.552;8.904;2022-10-17T08:06:15;19.50;;;12.07;;
8622;SDS011;4349;47.552;8.904;2022-10-17T08:08:43;15.97;;;11.97;;
8622;SDS011;4349;47.552;8.904;2022-10-17T08:11:11;17.97;;;12.57;;
8622;SDS011;4349;47.552;8.904;2022-10-17T08:13:39;15.83;;;11.90;;
8622;SDS011;4349;47.552;8.904;2022-10-17T08:16:09;22.43;;;16.30;;
8622;SDS011;4349;47.552;8.904;2022-10-17T08:18:37;17.70;;;14.93;;
8622;SDS011;4349;47.552;8.904;2022-10-17T08:21:05;19.73;;;13.90;;
8622;SDS011;4349;47.552;8.904;2022-10-17T08:23:33;21.73;;;13.67;;
8622;SDS011;4349;47.552;8.904;2022-10-17T08:26:02;21.17;;;12.97;;
8622;SDS011;4349;47.552;8.904;2022-10-17T08:28:30;19.77;;;14.17;;
8622;SDS011;4349;47.552;8.904;2022-10-17T08:31:01;21.57;;;15.33;;
8622;SDS011;4349;47.552;8.904;2022-10-17T08:33:30;23.30;;;15.33;;
8622;SDS011;4349;47.552;8.904;2022-10-17T08:35:58;25.00;;;15.97;;
8622;SDS011;4349;47.552;8.904;2022-10-17T08:38:27;25.47;;;15.10;;
8622;SDS011;4349;47.552;8.904;2022-10-17T08:43:53;25.10;;;15.10;;
8622;SDS011;4349;47.552;8.904;2022-10-17T08:46:22;24.17;;;14.33;;
8622;SDS011;4349;47.552;8.904;2022-10-17T08:48:56;21.23;;;14.30;;
8622;SDS011;4349;47.552;8.904;2022-10-17T08:51:26;18.27;;;14.40;;
8622;SDS011;4349;47.552;8.904;2022-10-17T08:53:55;19.37;;;13.67;;
8622;SDS011;4349;47.552;8.904;2022-10-17T08:56:26;18.83;;;14.53;;
8622;SDS011;4349;47.552;8.904;2022-10-17T08:59:16;21.57;;;15.00;;
8622;SDS011;4349;47.552;8.904;2022-10-17T09:01:45;18.13;;;14.43;;
8622;SDS011;4349;47.552;8.904;2022-10-17T09:04:20;17.87;;;13.40;;
8622;SDS011;4349;47.552;8.904;2022-10-17T09:06:53;17.73;;;12.70;;
8622;SDS011;4349;47.552;8.904;2022-10-17T09:09:29;15.17;;;12.30;;
8622;SDS011;4349;47.552;8.904;2022-10-17T09:12:02;16.00;;;11.30;;
8622;SDS011;4349;47.552;8.904;2022-10-17T09:14:35;14.63;;;11.63;;
8622;SDS011;4349;47.552;8.904;2022-10-17T09:17:07;11.93;;;10.47;;
8622;SDS011;4349;47.552;8.904;2022-10-17T09:19:42;13.30;;;10.00;;
8622;SDS011;4349;47.552;8.904;2022-10-17T09:22:12;11.00;;;9.90;;
8622;SDS011;4349;47.552;8.904;2022-10-17T09:24:42;12.37;;;10.37;;
8622;SDS011;4349;47.552;8.904;2022-10-17T09:27:14;11.07;;;9.67;;
8622;SDS011;4349;47.552;8.904;2022-10-17T09:29:45;12.63;;;9.10;;
8622;SDS011;4349;47.552;8.904;2022-10-17T09:32:16;9.53;;;8.50;;
8622;SDS011;4349;47.552;8.904;2022-10-17T09:34:45;9.63;;;8.20;;
8622;SDS011;4349;47.552;8.904;2022-10-17T09:37:14;9.80;;;8.50;;
8622;SDS011;4349;47.552;8.904;2022-10-17T09:39:42;9.20;;;8.30;;
8622;SDS011;4349;47.552;8.904;2022-10-17T09:42:12;9.30;;;8.40;;
8622;SDS011;4349;47.552;8.904;2022-10-17T09:44:41;7.63;;;7.00;;
8622;SDS011;4349;47.552;8.904;2022-10-17T09:47:24;8.30;;;7.53;;
8622;SDS011;4349;47.552;8.904;2022-10-17T09:49:56;8.23;;;7.50;;
8622;SDS011;4349;47.552;8.904;2022-10-17T09:52:26;7.23;;;6.60;;
8622;SDS011;4349;47.552;8.904;2022-10-17T09:54:56;8.53;;;6.23;;
8622;SDS011;4349;47.552;8.904;2022-10-17T09:57:25;6.60;;;6.00;;
8622;SDS011;4349;47.552;8.904;2022-10-17T09:59:56;8.03;;;7.23;;
8622;SDS011;4349;47.552;8.904;2022-10-17T10:02:25;6.93;;;6.40;;
8622;SDS011;4349;47.552;8.904;2022-10-17T10:04:59;7.97;;;6.30;;
8622;SDS011;4349;47.552;8.904;2022-10-17T10:07:32;6.17;;;5.57;;
8622;SDS011;4349;47.552;8.904;2022-10-17T10:10:00;6.30;;;5.33;;
8622;SDS011;4349;47.552;8.904;2022-10-17T10:12:29;5.57;;;5.07;;
8622;SDS011;4349;47.552;8.904;2022-10-17T10:14:57;6.50;;;5.90;;
8622;SDS011;4349;47.552;8.904;2022-10-17T10:17:27;6.17;;;5.63;;
8622;SDS011;4349;47.552;8.904;2022-10-17T10:19:55;6.30;;;5.70;;
8622;SDS011;4349;47.552;8.904;2022-10-17T10:22:24;7.70;;;6.07;;
8622;SDS011;4349;47.552;8.904;2022-10-17T10:25:10;6.07;;;5.57;;
8622;SDS011;4349;47.552;8.904;2022-10-17T10:27:39;6.10;;;5.60;;
8622;SDS011;4349;47.552;8.904;2022-10-17T10:30:15;7.00;;;6.40;;
8622;SDS011;4349;47.552;8.904;2022-10-17T10:32:43;9.80;;;6.07;;
8622;SDS011;4349;47.552;8.904;2022-10-17T10:35:17;7.80;;;6.67;;
8622;SDS011;4349;47.552;8.904;2022-10-17T10:37:48;7.33;;;5.67;;
8622;SDS011;4349;47.552;8.904;2022-10-17T10:40:18;8.27;;;5.73;;
8622;SDS011;4349;47.552;8.904;2022-10-17T10:42:46;8.20;;;5.73;;
8622;SDS011;4349;47.552;8.904;2022-10-17T10:45:16;5.97;;;5.30;;
8622;SDS011;4349;47.552;8.904;2022-10-17T10:48:17;6.17;;;5.67;;
8622;SDS011;4349;47.552;8.904;2022-10-17T10:50:46;6.17;;;5.00;;
8622;SDS011;4349;47.552;8.904;2022-10-17T10:53:23;5.47;;;5.17;;
8622;SDS011;4349;47.552;8.904;2022-10-17T10:55:53;5.47;;;4.80;;
8622;SDS011;4349;47.552;8.904;2022-10-17T10:58:31;5.10;;;4.70;;
8622;SDS011;4349;47.552;8.904;2022-10-17T11:01:04;6.07;;;4.77;;
8622;SDS011;4349;47.552;8.904;2022-10-17T11:03:34;5.50;;;5.00;;
8622;SDS011;4349;47.552;8.904;2022-10-17T11:06:03;6.73;;;4.80;;
8622;SDS011;4349;47.552;8.904;2022-10-17T11:08:34;7.77;;;4.50;;
8622;SDS011;4349;47.552;8.904;2022-10-17T11:11:05;4.70;;;4.40;;
8622;SDS011;4349;47.552;8.904;2022-10-17T11:13:36;5.07;;;4.57;;
8622;SDS011;4349;47.552;8.904;2022-10-17T11:16:10;5.90;;;4.70;;
8622;SDS011;4349;47.552;8.904;2022-10-17T11:18:39;4.67;;;4.27;;
8622;SDS011;4349;47.552;8.904;2022-10-17T11:21:09;4.53;;;4.20;;
8622;SDS011;4349;47.552;8.904;2022-10-17T11:23:41;4.70;;;4.30;;
8622;SDS011;4349;47.552;8.904;2022-10-17T11:26:12;4.77;;;4.10;;
8622;SDS011;4349;47.552;8.904;2022-10-17T11:28:40;4.50;;;4.13;;
8622;SDS011;4349;47.552;8.904;2022-10-17T11:31:09;4.00;;;3.70;;
8622;SDS011;4349;47.552;8.904;2022-10-17T11:33:40;5.83;;;4.13;;
8622;SDS011;4349;47.552;8.904;2022-10-17T11:36:10;4.10;;;3.90;;
8622;SDS011;4349;47.552;8.904;2022-10-17T11:38:42;4.27;;;3.97;;
8622;SDS011;4349;47.552;8.904;2022-10-17T11:41:13;4.50;;;4.20;;
8622;SDS011;4349;47.552;8.904;2022-10-17T11:43:44;5.07;;;4.67;;
8622;SDS011;4349;47.552;8.904;2022-10-17T11:46:16;5.00;;;4.43;;
8622;SDS011;4349;47.552;8.904;2022-10-17T11:48:49;6.83;;;4.50;;
8622;SDS011;4349;47.552;8.904;2022-10-17T11:51:20;9.03;;;4.63;;
8622;SDS011;4349;47.552;8.904;2022-10-17T11:54:10;5.30;;;4.80;;
8622;SDS011;4349;47.552;8.904;2022-10-17T11:56:41;9.37;;;5.20;;
8622;SDS011;4349;47.552;8.904;2022-10-17T11:59:17;5.83;;;4.70;;
8622;SDS011;4349;47.552;8.904;2022-10-17T12:01:50;5.77;;;4.67;;
8622;SDS011;4349;47.552;8.904;2022-10-17T12:04:20;5.27;;;4.77;;
8622;SDS011;4349;47.552;8.904;2022-10-17T12:06:56;8.17;;;5.80;;
8622;SDS011;4349;47.552;8.904;2022-10-17T12:09:29;6.20;;;5.07;;
8622;SDS011;4349;47.552;8.904;2022-10-17T12:11:59;8.23;;;5.43;;
8622;SDS011;4349;47.552;8.904;2022-10-17T12:14:35;5.93;;;5.43;;
8622;SDS011;4349;47.552;8.904;2022-10-17T12:17:02;5.17;;;4.67;;
8622;SDS011;4349;47.552;8.904;2022-10-17T12:19:31;9.43;;;5.50;;
8622;SDS011;4349;47.552;8.904;2022-10-17T12:22:16;8.77;;;5.93;;
8622;SDS011;4349;47.552;8.904;2022-10-17T12:24:52;6.73;;;5.40;;
8622;SDS011;4349;47.552;8.904;2022-10-17T12:27:30;12.97;;;6.03;;
8622;SDS011;4349;47.552;8.904;2022-10-17T12:29:59;7.10;;;4.70;;
8622;SDS011;4349;47.552;8.904;2022-10-17T12:32:28;5.23;;;4.73;;
8622;SDS011;4349;47.552;8.904;2022-10-17T12:35:18;6.63;;;3.90;;
8622;SDS011;4349;47.552;8.904;2022-10-17T12:40:55;5.43;;;4.67;;
8622;SDS011;4349;47.552;8.904;2022-10-17T12:46:44;5.00;;;4.57;;
8622;SDS011;4349;47.552;8.904;2022-10-17T12:52:09;4.10;;;3.83;;
8622;SDS011;4349;47.552;8.904;2022-10-17T12:54:41;4.83;;;4.47;;
8622;SDS011;4349;47.552;8.904;2022-10-17T12:57:29;4.00;;;3.70;;
8622;SDS011;4349;47.552;8.904;2022-10-17T12:59:57;4.63;;;4.33;;
8622;SDS011;4349;47.552;8.904;2022-10-17T13:02:26;5.40;;;5.00;;
8622;SDS011;4349;47.552;8.904;2022-10-17T13:04:57;5.80;;;5.30;;
8622;SDS011;4349;47.552;8.904;2022-10-17T13:07:26;6.60;;;5.97;;
8622;SDS011;4349;47.552;8.904;2022-10-17T13:09:55;5.90;;;5.10;;
8622;SDS011;4349;47.552;8.904;2022-10-17T13:12:23;4.50;;;4.10;;
8622;SDS011;4349;47.552;8.904;2022-10-17T13:14:54;5.37;;;4.87;;
8622;SDS011;4349;47.552;8.904;2022-10-17T13:17:22;4.90;;;4.60;;
8622;SDS011;4349;47.552;8.904;2022-10-17T13:19:50;5.17;;;4.67;;
8622;SDS011;4349;47.552;8.904;2022-10-17T13:22:20;5.43;;;4.93;;
8622;SDS011;4349;47.552;8.904;2022-10-17T13:24:48;6.27;;;4.90;;
8622;SDS011;4349;47.552;8.904;2022-10-17T13:27:26;5.53;;;5.13;;
8622;SDS011;4349;47.552;8.904;2022-10-17T13:29:55;6.17;;;4.83;;
8622;SDS011;4349;47.552;8.904;2022-10-17T13:32:23;5.10;;;3.97;;
8622;SDS011;4349;47.552;8.904;2022-10-17T13:35:04;5.30;;;4.53;;
8622;SDS011;4349;47.552;8.904;2022-10-17T13:37:33;5.67;;;4.70;;
8622;SDS011;4349;47.552;8.904;2022-10-17T13:40:00;5.70;;;4.97;;
8622;SDS011;4349;47.552;8.904;2022-10-17T13:42:48;4.90;;;4.40;;
8622;SDS011;4349;47.552;8.904;2022-10-17T13:45:19;5.40;;;4.90;;
8622;SDS011;4349;47.552;8.904;2022-10-17T13:47:47;5.97;;;5.30;;
8622;SDS011;4349;47.552;8.904;2022-10-17T13:50:23;5.47;;;4.97;;
8622;SDS011;4349;47.552;8.904;2022-10-17T13:53:16;5.20;;;4.70;;
8622;SDS011;4349;47.552;8.904;2022-10-17T13:55:55;5.40;;;5.00;;
8622;SDS011;4349;47.552;8.904;2022-10-17T13:58:44;5.53;;;5.03;;
8622;SDS011;4349;47.552;8.904;2022-10-17T14:01:13;5.10;;;4.70;;
8622;SDS011;4349;47.552;8.904;2022-10-17T14:03:41;5.00;;;4.70;;
8622;SDS011;4349;47.552;8.904;2022-10-17T14:06:16;5.73;;;4.57;;
8622;SDS011;4349;47.552;8.904;2022-10-17T14:08:46;5.73;;;5.20;;
8622;SDS011;4349;47.552;8.904;2022-10-17T14:11:17;5.83;;;5.20;;
8622;SDS011;4349;47.552;8.904;2022-10-17T14:13:47;5.00;;;4.57;;
8622;SDS011;4349;47.552;8.904;2022-10-17T14:16:16;4.57;;;4.30;;
8622;SDS011;4349;47.552;8.904;2022-10-17T14:18:45;5.07;;;4.53;;
8622;SDS011;4349;47.552;8.904;2022-10-17T14:21:17;7.80;;;5.10;;
8622;SDS011;4349;47.552;8.904;2022-10-17T14:24:12;4.77;;;4.37;;
8622;SDS011;4349;47.552;8.904;2022-10-17T14:26:46;7.33;;;4.70;;
8622;SDS011;4349;47.552;8.904;2022-10-17T14:29:19;5.00;;;4.70;;
8622;SDS011;4349;47.552;8.904;2022-10-17T14:31:48;4.03;;;3.77;;
8622;SDS011;4349;47.552;8.904;2022-10-17T14:34:19;3.53;;;3.27;;
8622;SDS011;4349;47.552;8.904;2022-10-17T14:36:48;4.10;;;3.80;;
8622;SDS011;4349;47.552;8.904;2022-10-17T14:39:17;3.47;;;3.17;;
8622;SDS011;4349;47.552;8.904;2022-10-17T14:41:46;4.13;;;3.33;;
8622;SDS011;4349;47.552;8.904;2022-10-17T14:44:18;2.80;;;2.60;;
8622;SDS011;4349;47.552;8.904;2022-10-17T14:46:47;2.90;;;2.70;;
8622;SDS011;4349;47.552;8.904;2022-10-17T14:49:18;2.93;;;2.80;;
8622;SDS011;4349;47.552;8.904;2022-10-17T14:52:10;3.00;;;2.80;;
8622;SDS011;4349;47.552;8.904;2022-10-17T14:54:40;7.47;;;3.23;;
8622;SDS011;4349;47.552;8.904;2022-10-17T14:57:13;3.17;;;2.87;;
8622;SDS011;4349;47.552;8.904;2022-10-17T14:59:41;4.80;;;3.10;;
8622;SDS011;4349;47.552;8.904;2022-10-17T15:02:19;3.67;;;2.90;;
8622;SDS011;4349;47.552;8.904;2022-10-17T15:04:48;3.10;;;2.90;;
8622;SDS011;4349;47.552;8.904;2022-10-17T15:07:16;3.23;;;2.90;;
8622;SDS011;4349;47.552;8.904;2022-10-17T15:09:44;3.20;;;3.00;;
8622;SDS011;4349;47.552;8.904;2022-10-17T15:12:14;3.00;;;2.90;;
8622;SDS011;4349;47.552;8.904;2022-10-17T15:14:42;3.30;;;3.10;;
8622;SDS011;4349;47.552;8.904;2022-10-17T15:17:13;3.00;;;2.80;;
8622;SDS011;4349;47.552;8.904;2022-10-17T15:19:41;3.07;;;2.70;;
8622;SDS011;4349;47.552;8.904;2022-10-17T15:22:10;2.50;;;2.30;;
8622;SDS011;4349;47.552;8.904;2022-10-17T15:24:38;3.27;;;2.93;;
8622;SDS011;4349;47.552;8.904;2022-10-17T15:27:06;2.87;;;2.67;;
8622;SDS011;4349;47.552;8.904;2022-10-17T15:29:39;3.50;;;2.80;;
8622;SDS011;4349;47.552;8.904;2022-10-17T15:32:07;3.63;;;3.03;;
8622;SDS011;4349;47.552;8.904;2022-10-17T15:34:34;3.50;;;3.30;;
8622;SDS011;4349;47.552;8.904;2022-10-17T15:37:02;3.13;;;3.03;;
8622;SDS011;4349;47.552;8.904;2022-10-17T15:39:32;3.28;;;3.08;;
8622;SDS011;4349;47.552;8.904;2022-10-17T15:41:59;4.80;;;3.73;;
8622;SDS011;4349;47.552;8.904;2022-10-17T15:44:27;4.00;;;3.70;;
8622;SDS011;4349;47.552;8.904;2022-10-17T15:46:55;3.90;;;3.60;;
8622;SDS011;4349;47.552;8.904;2022-10-17T15:49:23;3.50;;;3.30;;
8622;SDS011;4349;47.552;8.904;2022-10-17T15:51:50;3.40;;;3.20;;